Terminal Aerodrome Forecast
Issued by NWS Boston, MA

Home | Current Version | Previous Version | Text Only | Print | Product List | Glossary On
Versions: 1 2 3 4 5 6 7 8 9 10 11 12 13 14 15 16 17 18 19 20 21 22 23 24 25 26 27 28 29 30 31 32 33 34 35 36 37 38 39 40 41 42 43 44 45 46 47 48 49 50
000
FTUS41 KBOX 122128 AAB
TAFBOS
TAF AMD
KBOS 122128Z 1221/1324 15010KT P6SM FEW011 SCT035 OVC100
     FM122300 18008KT 5SM BR OVC020
     FM130100 23008KT P6SM BKN020
     FM130200 26008G19KT P6SM BKN035
     FM131400 27016G28KT P6SM SCT045
     FM131700 27019G34KT P6SM BKN040
     FM132000 27019G36KT P6SM FEW250=

USA.gov is the U.S. government's official web portal to all federal, state and local government web resources and services.